createdAt,value
2022-12-03T00:04:05.392Z,11.10
2022-12-03T00:09:09.127Z,10.40
2022-12-03T00:14:13.002Z,11.70
2022-12-03T00:19:17.957Z,11.80
2022-12-03T00:24:21.378Z,11.70
2022-12-03T00:29:24.843Z,12.03
2022-12-03T00:34:30.184Z,11.40
2022-12-03T00:39:33.703Z,12.37
2022-12-03T00:44:37.199Z,10.57
2022-12-03T00:49:42.346Z,12.30
2022-12-03T00:54:45.952Z,13.10
2022-12-03T00:59:49.453Z,11.60
2022-12-03T01:04:54.626Z,12.53
2022-12-03T01:09:58.251Z,13.13
2022-12-03T01:15:01.744Z,13.73
2022-12-03T01:20:09.201Z,13.70
2022-12-03T01:25:12.883Z,13.20
2022-12-03T01:30:16.568Z,11.77
2022-12-03T01:35:21.454Z,12.70
2022-12-03T01:40:25.132Z,12.43
2022-12-03T01:45:28.714Z,12.90
2022-12-03T01:50:35.388Z,13.80
2022-12-03T01:55:39.385Z,13.97
2022-12-03T02:00:43.195Z,12.27
2022-12-03T02:05:48.154Z,13.50
2022-12-03T02:10:52.104Z,13.33
2022-12-03T02:15:55.778Z,14.63
2022-12-03T02:21:10.956Z,14.47
2022-12-03T02:26:15.867Z,13.37
2022-12-03T02:31:19.512Z,12.93
2022-12-03T02:36:23.176Z,13.23
2022-12-03T02:41:45.772Z,13.43
2022-12-03T02:46:49.370Z,13.80
2022-12-03T02:51:52.968Z,16.27
2022-12-03T02:56:57.936Z,14.10
2022-12-03T03:02:01.655Z,13.83
2022-12-03T03:07:05.317Z,15.27
2022-12-03T03:12:11.200Z,14.80
2022-12-03T03:17:14.766Z,15.07
2022-12-03T03:22:18.798Z,13.23
2022-12-03T03:27:23.672Z,13.30
2022-12-03T03:32:27.834Z,12.50
2022-12-03T03:37:31.934Z,14.50
2022-12-03T03:42:37.182Z,14.17
2022-12-03T03:47:42.100Z,14.33
2022-12-03T03:52:46.568Z,14.00
2022-12-03T03:57:51.672Z,14.40
2022-12-03T04:02:55.767Z,15.27
2022-12-03T04:07:59.845Z,14.73
2022-12-03T04:13:05.174Z,16.23
2022-12-03T04:18:26.140Z,14.10
2022-12-03T04:23:31.126Z,13.53
2022-12-03T04:28:51.413Z,13.30
2022-12-03T04:34:12.345Z,12.57
2022-12-03T04:39:15.990Z,13.50
2022-12-03T04:44:36.850Z,14.40
2022-12-03T04:49:42.569Z,14.10
2022-12-03T04:54:46.363Z,12.73
2022-12-03T04:59:51.355Z,13.90
2022-12-03T05:04:55.071Z,14.30
2022-12-03T05:09:58.844Z,15.07
2022-12-03T05:15:03.957Z,12.47
2022-12-03T05:20:27.753Z,12.93
2022-12-03T05:25:31.382Z,12.87
2022-12-03T05:30:36.501Z,12.70
2022-12-03T05:35:40.140Z,14.27
2022-12-03T05:40:43.589Z,14.30
2022-12-03T05:45:48.707Z,14.67
2022-12-03T05:50:52.848Z,15.30
2022-12-03T05:55:56.319Z,14.60
2022-12-03T06:01:01.349Z,15.27
2022-12-03T06:06:05.277Z,15.60
2022-12-03T06:11:09.049Z,15.70
2022-12-03T06:16:14.137Z,16.23
2022-12-03T06:21:17.890Z,15.40
2022-12-03T06:26:21.766Z,15.27
2022-12-03T06:31:26.800Z,14.07
2022-12-03T06:36:30.381Z,14.30
2022-12-03T06:41:33.920Z,15.93
2022-12-03T06:46:38.897Z,14.87
2022-12-03T06:51:42.465Z,15.37
2022-12-03T06:56:47.171Z,16.00
2022-12-03T07:01:52.177Z,16.20
2022-12-03T07:06:55.753Z,17.30
2022-12-03T07:11:59.283Z,15.37
2022-12-03T07:17:04.264Z,14.57
2022-12-03T07:22:07.983Z,17.53
2022-12-03T07:27:11.611Z,16.13
2022-12-03T07:32:16.662Z,19.07
2022-12-03T07:37:23.217Z,15.47
2022-12-03T07:42:27.157Z,15.87
2022-12-03T07:47:32.249Z,15.40
2022-12-03T07:52:36.062Z,16.30
2022-12-03T07:57:39.647Z,19.13
2022-12-03T08:02:44.636Z,19.37
2022-12-03T08:07:48.282Z,19.03
2022-12-03T08:12:51.787Z,16.70
2022-12-03T08:17:59.797Z,19.00
2022-12-03T08:23:08.378Z,24.03
2022-12-03T08:28:18.962Z,18.90
2022-12-03T08:33:28.394Z,19.23
2022-12-03T08:38:32.028Z,16.60
2022-12-03T08:43:42.159Z,21.67
2022-12-03T08:48:49.485Z,18.53
2022-12-03T08:54:01.783Z,18.63
2022-12-03T08:59:24.857Z,18.80
2022-12-03T09:04:32.414Z,18.23
2022-12-03T09:09:36.137Z,16.43
2022-12-03T09:14:39.942Z,19.13
2022-12-03T09:19:46.340Z,17.70
2022-12-03T09:24:49.944Z,18.07
2022-12-03T09:29:53.523Z,18.03
2022-12-03T09:34:58.499Z,17.93
2022-12-03T09:40:02.016Z,18.80
2022-12-03T09:45:10.847Z,18.00
2022-12-03T09:50:20.063Z,15.27
2022-12-03T09:55:27.929Z,17.93
2022-12-03T10:00:31.735Z,17.83
2022-12-03T10:05:36.675Z,17.00
2022-12-03T10:10:43.028Z,19.67
2022-12-03T10:15:48.142Z,16.50
2022-12-03T10:20:54.040Z,18.20
2022-12-03T10:25:59.887Z,19.20
2022-12-03T10:31:05.576Z,17.10
2022-12-03T10:36:19.938Z,29.87
2022-12-03T10:41:27.374Z,16.87
2022-12-03T10:46:31.042Z,18.03
2022-12-03T10:51:36.656Z,20.40
2022-12-03T10:56:40.796Z,17.03
2022-12-03T11:01:44.633Z,20.00
2022-12-03T11:06:50.419Z,19.37
2022-12-03T11:11:54.562Z,17.23
2022-12-03T11:17:11.437Z,18.63
2022-12-03T11:22:44.437Z,19.57
2022-12-03T11:28:26.307Z,20.70
2022-12-03T11:33:32.803Z,18.10
2022-12-03T11:38:54.826Z,19.53
2022-12-03T11:44:19.899Z,22.00
2022-12-03T11:49:38.554Z,19.60
2022-12-03T11:54:42.133Z,17.07
2022-12-03T11:59:59.294Z,28.10
2022-12-03T12:05:20.537Z,16.10
2022-12-03T12:10:47.097Z,19.17
2022-12-03T12:15:50.659Z,18.37
2022-12-03T12:20:55.522Z,22.43
2022-12-03T12:26:07.539Z,16.83
2022-12-03T12:31:11.835Z,29.70
2022-12-03T12:36:17.394Z,18.80
2022-12-03T12:41:21.029Z,21.43
2022-12-03T12:46:47.126Z,18.83
2022-12-03T12:51:51.119Z,18.50
2022-12-03T12:56:54.802Z,19.00
2022-12-03T13:01:58.367Z,18.90
2022-12-03T13:07:03.295Z,22.00
2022-12-03T13:12:17.669Z,18.33
2022-12-03T13:17:24.605Z,17.37
2022-12-03T13:22:30.380Z,15.97
2022-12-03T13:27:33.911Z,18.13
2022-12-03T13:32:38.910Z,15.33
2022-12-03T13:37:44.084Z,23.87
2022-12-03T13:42:48.256Z,17.53
2022-12-03T13:47:56.637Z,17.67
2022-12-03T13:53:03.723Z,16.50
2022-12-03T13:58:07.185Z,14.97
2022-12-03T14:03:10.600Z,15.87
2022-12-03T14:08:15.556Z,19.20
2022-12-03T14:13:19.075Z,19.60
2022-12-03T14:18:22.508Z,21.43
2022-12-03T14:23:27.644Z,22.80
2022-12-03T14:28:31.351Z,23.23
2022-12-03T14:33:35.109Z,19.10
2022-12-03T14:38:40.002Z,15.93
2022-12-03T14:43:43.529Z,15.40
2022-12-03T14:48:47.033Z,19.33
2022-12-03T14:53:51.849Z,15.83
2022-12-03T14:58:55.519Z,42.80
2022-12-03T15:03:59.320Z,27.47
2022-12-03T15:09:05.220Z,21.63
2022-12-03T15:14:09.133Z,15.80
2022-12-03T15:19:12.604Z,24.10
2022-12-03T15:24:17.629Z,17.23
2022-12-03T15:29:21.368Z,18.47
2022-12-03T15:34:24.839Z,17.77
2022-12-03T15:39:29.771Z,21.20
2022-12-03T15:44:33.224Z,23.60
2022-12-03T15:49:36.731Z,49.80
2022-12-03T15:54:41.774Z,76.57
2022-12-03T16:00:01.067Z,69.83
2022-12-03T16:05:06.939Z,34.87
2022-12-03T16:10:13.246Z,37.53
2022-12-03T16:15:19.874Z,35.83
2022-12-03T16:20:25.718Z,19.90
2022-12-03T16:25:30.629Z,21.17
2022-12-03T16:30:34.183Z,14.50
2022-12-03T16:35:37.743Z,13.90
2022-12-03T16:40:42.600Z,14.40
2022-12-03T16:46:20.437Z,14.13
2022-12-03T16:51:25.505Z,17.90
2022-12-03T16:56:30.499Z,17.93
2022-12-03T17:01:34.104Z,17.87
2022-12-03T17:06:37.805Z,18.20
2022-12-03T17:11:42.859Z,20.00
2022-12-03T17:16:47.075Z,19.00
2022-12-03T17:21:51.396Z,17.30
2022-12-03T17:26:56.182Z,21.90
2022-12-03T17:31:59.699Z,24.87
2022-12-03T17:37:03.313Z,57.57
2022-12-03T17:42:08.244Z,23.83
2022-12-03T17:47:11.880Z,40.20
2022-12-03T17:52:15.318Z,21.97
2022-12-03T17:57:20.198Z,27.37
2022-12-03T18:02:23.879Z,33.77
2022-12-03T18:07:27.609Z,18.83
2022-12-03T18:12:32.573Z,19.53
2022-12-03T18:17:36.470Z,19.07
2022-12-03T18:22:40.257Z,16.60
2022-12-03T18:27:46.704Z,15.37
2022-12-03T18:32:50.891Z,14.00
2022-12-03T18:37:54.468Z,13.07
2022-12-03T18:42:59.431Z,12.90
2022-12-03T18:48:02.993Z,13.60
2022-12-03T18:53:06.604Z,13.13
2022-12-03T18:58:12.663Z,13.27
2022-12-03T19:03:16.441Z,14.20
2022-12-03T19:08:20.130Z,14.27
2022-12-03T19:13:25.480Z,13.13
2022-12-03T19:18:28.959Z,13.30
2022-12-03T19:23:32.637Z,14.70
2022-12-03T19:28:38.145Z,16.43
2022-12-03T19:33:43.476Z,14.00
2022-12-03T19:38:53.464Z,13.60
2022-12-03T19:44:04.074Z,16.97
2022-12-03T19:49:11.949Z,16.50
2022-12-03T19:54:15.904Z,14.67
2022-12-03T19:59:21.150Z,14.20
2022-12-03T20:04:24.914Z,11.97
2022-12-03T20:09:28.470Z,12.70
2022-12-03T20:14:33.695Z,15.40
2022-12-03T20:19:37.719Z,14.10
2022-12-03T20:24:41.584Z,13.37
2022-12-03T20:29:47.102Z,14.67
2022-12-03T20:34:50.813Z,14.87
2022-12-03T20:39:55.154Z,14.90
2022-12-03T20:45:01.741Z,14.50
2022-12-03T20:50:06.569Z,15.40
2022-12-03T20:55:11.186Z,12.33
2022-12-03T21:00:17.339Z,13.90
2022-12-03T21:05:21.641Z,13.87
2022-12-03T21:10:44.540Z,11.90
2022-12-03T21:15:49.512Z,11.47
2022-12-03T21:20:53.134Z,13.10
2022-12-03T21:26:03.195Z,12.40
2022-12-03T21:31:11.001Z,10.93
2022-12-03T21:36:17.342Z,10.83
2022-12-03T21:41:21.414Z,10.97
2022-12-03T21:47:11.579Z,12.03
2022-12-03T21:51:51.043Z,13.00
2022-12-03T21:56:54.714Z,12.80
2022-12-03T22:01:59.673Z,12.50
2022-12-03T22:07:03.658Z,12.77
2022-12-03T22:12:08.112Z,13.47
2022-12-03T22:17:13.274Z,13.47
2022-12-03T22:22:16.936Z,12.40
2022-12-03T22:27:20.685Z,12.70
2022-12-03T22:32:25.814Z,13.00
2022-12-03T22:37:29.339Z,14.03
2022-12-03T22:42:32.955Z,11.83
2022-12-03T22:47:38.460Z,13.00
2022-12-03T22:52:44.582Z,12.73
2022-12-03T22:57:50.446Z,11.80
2022-12-03T23:02:55.753Z,13.23
2022-12-03T23:07:59.598Z,11.90
2022-12-03T23:13:03.946Z,12.60
2022-12-03T23:18:09.755Z,12.53
2022-12-03T23:23:14.547Z,11.73
2022-12-03T23:28:18.408Z,12.47
2022-12-03T23:33:23.975Z,13.33
2022-12-03T23:38:27.993Z,13.67
2022-12-03T23:43:32.149Z,13.70
2022-12-03T23:48:41.284Z,13.37
2022-12-03T23:53:45.313Z,13.43
2022-12-03T23:58:49.149Z,13.13
